Time;durP1;ratioP1;P1;durP2;ratioP2;P2;SDS_P1;SDS_P2;PMS_P1;PMS_P2;Temp;Humidity;BMP_temperature;BMP_pressure;BME280_temperature;BME280_humidity;BME280_pressure;Samples;Min_cycle;Max_cycle;Signal;HPM_P1;HPM_P2
2022/03/27 00:01:20;;;;;;;14.68;9.00;;;;;;;11.41;37.30;100537.25;5050912;28;20048;-38
2022/03/27 00:03:45;;;;;;;15.23;9.45;;;;;;;11.81;36.51;100548.31;5051888;28;20099;-38
2022/03/27 00:06:11;;;;;;;15.98;8.85;;;;;;;11.46;36.68;100542.81;5051394;28;20055;-37
2022/03/27 00:08:36;;;;;;;17.55;8.60;;;;;;;11.73;35.97;100543.94;5051726;28;20453;-37
2022/03/27 00:13:46;;;;;;;15.20;8.60;;;;;;;12.14;35.04;100543.25;5051513;28;20157;-38
2022/03/27 00:16:12;;;;;;;14.27;7.95;;;;;;;11.88;36.17;100539.34;5051068;28;20111;-37
2022/03/27 00:18:37;;;;;;;15.73;7.90;;;;;;;11.96;35.07;100533.06;5051420;28;20035;-37
2022/03/27 00:21:04;;;;;;;14.85;7.93;;;;;;;11.85;36.07;100538.91;5051332;28;20104;-37
2022/03/27 00:23:30;;;;;;;15.32;8.07;;;;;;;12.14;35.12;100537.91;5051495;28;20061;-37
2022/03/27 00:25:56;;;;;;;15.85;7.70;;;;;;;12.03;34.75;100539.28;5051106;28;20096;-37
2022/03/27 00:28:22;;;;;;;13.40;7.97;;;;;;;11.95;35.35;100543.94;5051150;28;20032;-37
2022/03/27 00:30:47;;;;;;;12.32;7.15;;;;;;;12.08;34.60;100541.38;5051130;28;20057;-38
2022/03/27 00:33:13;;;;;;;16.10;7.22;;;;;;;12.08;34.46;100536.03;5051221;28;20432;-37
2022/03/27 00:35:39;;;;;;;13.88;6.80;;;;;;;12.18;34.10;100544.50;5051276;28;20033;-36
2022/03/27 00:38:05;;;;;;;11.38;6.68;;;;;;;11.99;34.41;100545.19;5050876;28;20032;-37
2022/03/27 00:40:30;;;;;;;13.02;6.43;;;;;;;11.72;35.19;100539.59;5051422;28;20078;-37
2022/03/27 00:42:55;;;;;;;15.52;6.22;;;;;;;12.06;34.92;100540.72;5050693;28;20029;-38
2022/03/27 00:45:21;;;;;;;11.23;5.45;;;;;;;12.34;34.52;100538.06;5050758;28;20028;-37
2022/03/27 00:47:46;;;;;;;11.43;5.90;;;;;;;12.28;33.98;100544.16;5050607;28;20032;-38
2022/03/27 00:50:12;;;;;;;11.77;5.43;;;;;;;11.99;34.95;100539.84;5050844;28;20035;-36
2022/03/27 00:52:37;;;;;;;15.88;5.70;;;;;;;12.14;34.30;100545.91;5050944;28;20028;-36
2022/03/27 00:55:03;;;;;;;10.25;5.80;;;;;;;12.30;33.76;100542.16;5050168;28;20059;-36
2022/03/27 00:57:30;;;;;;;8.88;5.20;;;;;;;11.59;34.84;100542.13;5050731;28;20029;-36
2022/03/27 00:59:56;;;;;;;10.98;5.82;;;;;;;11.97;34.57;100536.56;5050422;28;20033;-36
2022/03/27 01:02:21;;;;;;;13.25;5.78;;;;;;;11.85;34.99;100529.03;5050916;28;20032;-36
2022/03/27 01:04:47;;;;;;;10.35;5.97;;;;;;;12.28;33.58;100529.00;5050837;28;20082;-39
2022/03/27 01:07:18;;;;;;;12.43;5.78;;;;;;;11.95;34.13;100535.94;5050346;28;20061;-36
2022/03/27 01:09:48;;;;;;;11.65;6.22;;;;;;;11.85;34.23;100531.72;5050280;28;20047;-36
2022/03/27 01:12:22;;;;;;;11.20;5.60;;;;;;;11.59;35.07;100534.16;5050839;28;20064;-36
2022/03/27 01:14:49;;;;;;;12.15;5.30;;;;;;;11.89;34.57;100534.81;5057068;28;20489;-38
2022/03/27 01:17:17;;;;;;;11.80;5.78;;;;;;;12.03;34.84;100533.94;5057385;28;20032;-37
2022/03/27 01:19:49;;;;;;;11.85;5.57;;;;;;;11.99;34.63;100527.31;5057000;28;20147;-37
2022/03/27 01:22:16;;;;;;;9.20;5.60;;;;;;;11.79;35.07;100527.16;5057052;28;20021;-37
2022/03/27 01:24:42;;;;;;;10.98;5.43;;;;;;;11.59;36.03;100523.47;5056500;28;20033;-37
2022/03/27 01:27:08;;;;;;;10.77;5.80;;;;;;;11.46;35.80;100518.84;5057002;28;20032;-36
2022/03/27 01:29:34;;;;;;;10.73;5.70;;;;;;;11.23;36.69;100513.69;5056936;28;20035;-36
2022/03/27 01:32:03;;;;;;;10.98;5.85;;;;;;;11.98;35.48;100517.69;5056640;28;20029;-36
2022/03/27 01:34:29;;;;;;;10.85;5.40;;;;;;;11.96;35.14;100516.25;5056849;28;20032;-36
2022/03/27 01:36:55;;;;;;;11.10;5.72;;;;;;;12.14;34.79;100508.56;5057132;28;20039;-37
2022/03/27 01:39:20;;;;;;;11.18;5.28;;;;;;;11.97;34.05;100516.03;5056847;28;20029;-37
2022/03/27 01:41:46;;;;;;;9.68;5.25;;;;;;;11.90;34.16;100512.50;5056860;28;20040;-37
2022/03/27 01:44:17;;;;;;;12.68;5.53;;;;;;;12.11;33.58;100514.31;5056773;28;20457;-37
2022/03/27 01:46:44;;;;;;;12.60;5.22;;;;;;;12.20;34.32;100515.78;5056900;28;20025;-37
2022/03/27 01:49:11;;;;;;;11.10;5.63;;;;;;;11.89;33.85;100514.34;5055123;28;20029;-36
2022/03/27 01:51:38;;;;;;;8.10;5.07;;;;;;;12.08;34.06;100512.84;5056607;28;20079;-37
2022/03/27 01:54:05;;;;;;;9.50;5.30;;;;;;;12.24;33.78;100511.72;5056873;28;20021;-37
2022/03/27 01:56:30;;;;;;;10.77;5.47;;;;;;;12.09;34.25;100511.81;5057021;28;20032;-37
2022/03/27 01:58:56;;;;;;;11.27;5.28;;;;;;;12.11;33.58;100508.97;5056963;28;20067;-37
2022/03/27 02:01:21;;;;;;;10.40;5.63;;;;;;;12.23;33.90;100512.72;5056700;28;20059;-36
2022/03/27 02:03:48;;;;;;;11.75;5.18;;;;;;;12.08;33.55;100507.50;5055885;28;20031;-36
2022/03/27 02:06:14;;;;;;;11.82;5.70;;;;;;;11.68;34.78;100503.66;5056809;28;20056;-36
2022/03/27 02:08:40;;;;;;;13.35;5.25;;;;;;;11.91;34.50;100504.28;5056915;28;20033;-37
2022/03/27 02:11:07;;;;;;;11.60;5.32;;;;;;;12.20;33.53;100493.63;5056535;28;20477;-37
2022/03/27 02:13:32;;;;;;;14.13;5.50;;;;;;;12.16;33.93;100498.50;5056568;28;20071;-37
2022/03/27 02:15:58;;;;;;;10.55;5.13;;;;;;;12.37;33.50;100505.63;5056675;28;20024;-37
2022/03/27 02:18:26;;;;;;;10.23;5.60;;;;;;;12.50;32.97;100503.03;5057034;28;20032;-37
2022/03/27 02:20:52;;;;;;;12.38;5.40;;;;;;;12.25;33.80;100507.19;5056597;28;20052;-37
2022/03/27 02:23:17;;;;;;;9.77;5.05;;;;;;;12.49;32.95;100503.25;5056490;28;20060;-37
2022/03/27 02:25:43;;;;;;;10.10;5.40;;;;;;;12.78;32.36;100504.81;5053426;28;20111;-37
2022/03/27 02:28:09;;;;;;;11.20;5.25;;;;;;;12.45;33.57;100494.81;5054091;28;20056;-37
2022/03/27 02:30:35;;;;;;;10.57;5.68;;;;;;;12.69;32.77;100506.00;5053833;28;20032;-37
2022/03/27 02:33:02;;;;;;;13.32;5.25;;;;;;;12.35;33.81;100506.84;5054186;28;20102;-37
2022/03/27 02:35:27;;;;;;;13.13;5.25;;;;;;;12.59;33.45;100502.88;5053038;28;20025;-37
2022/03/27 02:37:53;;;;;;;9.88;4.97;;;;;;;12.55;32.73;100507.78;5053787;28;20392;-38
2022/03/27 02:40:18;;;;;;;9.02;5.40;;;;;;;12.40;33.81;100509.75;5053983;28;20458;-38
2022/03/27 02:42:44;;;;;;;13.32;5.45;;;;;;;12.59;33.30;100500.22;5053920;28;20083;-37
2022/03/27 02:45:10;;;;;;;12.05;5.57;;;;;;;12.21;33.51;100505.94;5053245;28;20036;-38
2022/03/27 02:47:36;;;;;;;9.95;5.38;;;;;;;12.26;33.57;100514.19;5053281;28;20048;-38
2022/03/27 02:50:04;;;;;;;10.65;5.20;;;;;;;12.10;34.22;100521.47;5053509;28;20100;-37
2022/03/27 02:52:30;;;;;;;13.23;5.53;;;;;;;12.18;33.83;100514.34;5053101;28;20029;-37
2022/03/27 02:54:55;;;;;;;16.55;5.18;;;;;;;12.17;33.57;100518.03;5053599;28;20098;-38
2022/03/27 02:57:21;;;;;;;11.38;5.18;;;;;;;12.06;33.57;100522.88;5053133;28;20024;-38
2022/03/27 02:59:47;;;;;;;10.13;5.38;;;;;;;11.91;34.56;100527.47;5053478;28;20068;-37
2022/03/27 03:02:12;;;;;;;13.65;5.18;;;;;;;12.20;33.98;100530.97;5053398;28;20021;-38
2022/03/27 03:04:38;;;;;;;12.27;5.47;;;;;;;12.37;33.78;100534.97;5053227;28;20552;-38
2022/03/27 03:07:03;;;;;;;11.93;5.10;;;;;;;12.31;33.15;100533.09;5052931;28;20053;-37
2022/03/27 03:09:29;;;;;;;11.57;5.40;;;;;;;12.38;33.13;100523.28;5053529;28;20394;-37
2022/03/27 03:11:55;;;;;;;9.60;4.68;;;;;;;12.12;33.88;100542.63;5053164;28;20040;-37
2022/03/27 03:14:22;;;;;;;12.40;5.28;;;;;;;12.29;33.15;100537.81;5053320;28;20411;-37
2022/03/27 03:16:47;;;;;;;7.50;4.88;;;;;;;12.10;33.63;100536.66;5053246;28;20096;-37
2022/03/27 03:19:13;;;;;;;10.30;4.97;;;;;;;12.39;33.08;100540.13;5053160;28;20516;-37
2022/03/27 03:21:40;;;;;;;15.57;5.07;;;;;;;12.14;33.86;100535.25;5053147;28;20500;-37
2022/03/27 03:24:06;;;;;;;9.60;4.80;;;;;;;12.45;32.57;100547.34;5053200;28;20024;-37
2022/03/27 03:26:32;;;;;;;8.85;5.00;;;;;;;12.27;33.32;100542.53;5052949;28;20021;-37
2022/03/27 03:28:58;;;;;;;10.18;4.82;;;;;;;12.39;33.04;100532.94;5052676;28;20542;-38
2022/03/27 03:31:23;;;;;;;12.60;5.03;;;;;;;12.32;32.96;100548.94;5052384;28;20522;-38
2022/03/27 03:33:49;;;;;;;12.55;5.25;;;;;;;12.19;32.94;100553.34;5052596;28;20614;-38
2022/03/27 03:36:15;;;;;;;10.45;4.75;;;;;;;11.99;33.37;100546.00;5051607;28;20026;-38
2022/03/27 03:38:41;;;;;;;10.55;5.38;;;;;;;12.23;33.74;100551.94;5052692;28;20083;-38
2022/03/27 03:41:08;;;;;;;10.25;4.93;;;;;;;11.81;34.20;100537.63;5052844;28;20090;-38
2022/03/27 03:43:36;;;;;;;13.25;5.20;;;;;;;12.16;33.37;100549.22;5052518;28;20040;-37
2022/03/27 03:46:05;;;;;;;11.52;5.15;;;;;;;12.22;34.04;100550.28;5052810;28;20110;-37
2022/03/27 03:48:31;;;;;;;10.75;5.53;;;;;;;12.33;32.89;100553.22;5052824;28;20032;-37
2022/03/27 03:50:57;;;;;;;14.18;5.40;;;;;;;12.30;33.60;100558.97;5052503;28;20036;-38
2022/03/27 03:53:24;;;;;;;6.78;4.80;;;;;;;11.97;34.32;100553.38;5052657;28;20169;-38
2022/03/27 03:55:49;;;;;;;10.20;4.95;;;;;;;11.96;34.26;100553.59;5052476;28;20028;-37
2022/03/27 03:58:15;;;;;;;11.63;4.85;;;;;;;12.18;34.03;100554.34;5052393;28;20027;-38
2022/03/27 04:00:42;;;;;;;11.18;5.20;;;;;;;12.06;33.96;100556.75;5052057;28;20079;-37
2022/03/27 04:03:07;;;;;;;9.15;5.22;;;;;;;12.16;34.11;100556.41;5052526;28;20082;-37
2022/03/27 04:05:34;;;;;;;12.35;5.85;;;;;;;11.93;34.01;100552.13;5052023;28;20056;-40
2022/03/27 04:08:00;;;;;;;12.18;5.47;;;;;;;11.57;34.94;100557.50;5052221;28;20048;-37
2022/03/27 04:10:25;;;;;;;10.15;5.20;;;;;;;11.78;34.33;100565.50;5051975;28;20199;-37
2022/03/27 04:12:51;;;;;;;11.23;5.50;;;;;;;11.74;34.66;100564.22;5052180;28;20047;-38
2022/03/27 04:15:17;;;;;;;9.80;4.93;;;;;;;11.61;34.48;100569.44;5051917;28;20520;-38
2022/03/27 04:17:45;;;;;;;12.38;5.68;;;;;;;11.46;34.73;100567.66;5052507;28;20032;-37
2022/03/27 04:20:12;;;;;;;11.83;5.53;;;;;;;11.36;35.63;100575.13;5051947;28;20025;-37
2022/03/27 04:22:39;;;;;;;10.10;5.40;;;;;;;11.40;35.51;100572.91;5051322;28;20036;-37
2022/03/27 04:25:05;;;;;;;11.13;5.38;;;;;;;11.13;35.50;100580.59;5051318;28;20060;-37
2022/03/27 04:27:31;;;;;;;10.15;5.28;;;;;;;11.29;35.26;100577.72;5051822;28;20056;-37
2022/03/27 04:29:57;;;;;;;9.98;5.05;;;;;;;11.37;35.39;100578.63;5051761;28;20094;-37
2022/03/27 04:32:22;;;;;;;12.07;5.30;;;;;;;11.54;35.11;100582.72;5051479;28;20029;-37
2022/03/27 04:34:50;;;;;;;10.98;5.50;;;;;;;11.76;34.64;100580.03;5051357;28;20082;-37
2022/03/27 04:37:18;;;;;;;10.10;5.45;;;;;;;12.12;34.12;100583.47;5051618;28;20032;-37
2022/03/27 04:39:44;;;;;;;12.45;5.18;;;;;;;12.34;33.69;100580.75;5051655;28;20082;-37
2022/03/27 04:42:09;;;;;;;12.77;5.55;;;;;;;12.19;33.98;100593.38;5051414;28;20454;-37
2022/03/27 04:44:35;;;;;;;13.85;5.15;;;;;;;12.33;33.74;100597.78;5051328;28;20135;-37
2022/03/27 04:47:01;;;;;;;10.02;4.90;;;;;;;12.43;34.12;100595.63;5051241;28;20047;-37
2022/03/27 04:49:26;;;;;;;11.63;5.78;;;;;;;12.40;34.32;100604.00;5051434;28;20036;-37
2022/03/27 04:51:52;;;;;;;23.10;5.43;;;;;;;12.43;34.72;100597.44;5051459;28;20033;-37
2022/03/27 04:54:17;;;;;;;12.25;5.68;;;;;;;12.81;33.68;100605.06;5050840;28;20032;-37
2022/03/27 04:56:44;;;;;;;10.43;5.60;;;;;;;12.79;33.60;100604.44;5051408;28;20032;-37
2022/03/27 04:59:09;;;;;;;12.65;5.97;;;;;;;13.05;33.05;100612.59;5051498;28;20044;-37
2022/03/27 05:01:35;;;;;;;12.15;5.40;;;;;;;13.30;33.14;100607.59;5051669;28;20024;-37
2022/03/27 05:04:00;;;;;;;8.45;5.20;;;;;;;13.25;33.20;100609.19;5051302;28;20021;-38
2022/03/27 05:06:26;;;;;;;13.70;5.45;;;;;;;13.59;32.14;100602.94;5050928;28;20570;-38
2022/03/27 05:08:51;;;;;;;10.48;5.53;;;;;;;13.77;32.07;100605.03;5051264;28;20480;-38
2022/03/27 05:11:17;;;;;;;9.35;5.63;;;;;;;14.26;31.26;100609.19;5051133;28;20032;-38
2022/03/27 05:13:43;;;;;;;10.32;5.10;;;;;;;14.49;41.39;100613.31;5050794;28;20029;-38
2022/03/27 05:16:09;;;;;;;10.55;5.40;;;;;;;15.28;35.44;100616.00;5051054;28;20079;-39
2022/03/27 05:18:34;;;;;;;8.73;5.20;;;;;;;15.62;31.27;100612.91;5051536;28;20025;-38
2022/03/27 05:21:00;;;;;;;8.05;5.38;;;;;;;15.80;33.25;100606.88;5051127;28;20504;-38
2022/03/27 05:23:26;;;;;;;8.73;5.22;;;;;;;16.67;32.73;100616.03;5050928;28;20104;-39
2022/03/27 05:25:52;;;;;;;8.55;5.30;;;;;;;16.66;28.32;100609.84;5050635;28;20023;-38
2022/03/27 05:28:19;;;;;;;11.02;5.35;;;;;;;16.65;29.07;100616.25;5050864;28;20017;-38
2022/03/27 05:30:44;;;;;;;10.52;5.53;;;;;;;16.78;28.47;100618.00;5051195;28;20457;-38
2022/03/27 05:33:10;;;;;;;9.32;5.43;;;;;;;16.74;28.15;100606.88;5051279;28;20112;-38
2022/03/27 05:35:36;;;;;;;12.63;5.40;;;;;;;17.19;30.60;100621.88;5050706;28;20461;-38
2022/03/27 05:38:01;;;;;;;8.15;5.47;;;;;;;17.02;28.55;100612.78;5050793;28;20048;-38
2022/03/27 05:40:27;;;;;;;11.48;6.28;;;;;;;17.46;27.31;100621.53;5050942;28;20072;-38
2022/03/27 05:42:53;;;;;;;12.55;7.15;;;;;;;18.10;27.18;100624.59;5051052;28;20029;-38
2022/03/27 05:45:20;;;;;;;9.93;6.47;;;;;;;18.40;26.72;100618.31;5051149;28;20021;-38
2022/03/27 05:47:45;;;;;;;14.15;6.55;;;;;;;18.00;27.08;100635.13;5050699;28;20025;-38
2022/03/27 05:50:14;;;;;;;12.80;5.63;;;;;;;17.92;26.48;100631.69;5051570;28;20100;-38
2022/03/27 05:52:41;;;;;;;10.40;5.32;;;;;;;17.46;29.13;100640.38;5050888;28;20049;-38
2022/03/27 05:55:07;;;;;;;13.90;5.88;;;;;;;17.65;26.97;100625.84;5050652;28;20032;-38
2022/03/27 05:57:32;;;;;;;11.77;5.57;;;;;;;18.04;28.03;100636.28;5050498;28;20025;-38
2022/03/27 05:59:58;;;;;;;9.93;6.10;;;;;;;18.29;25.71;100639.59;5051938;28;20162;-38
2022/03/27 06:02:23;;;;;;;8.70;4.90;;;;;;;18.61;26.68;100633.06;5054631;28;20017;-38
2022/03/27 06:04:49;;;;;;;12.05;6.63;;;;;;;19.29;25.92;100637.78;5054357;28;20021;-38
2022/03/27 06:07:15;;;;;;;10.55;5.57;;;;;;;19.54;24.45;100636.63;5054346;28;20517;-38
2022/03/27 06:09:40;;;;;;;13.98;5.60;;;;;;;19.86;24.43;100631.59;5053264;28;20032;-38
2022/03/27 06:12:06;;;;;;;11.13;5.68;;;;;;;20.14;25.49;100642.56;5053724;28;20113;-38
2022/03/27 06:14:32;;;;;;;10.40;5.78;;;;;;;20.32;23.76;100642.34;5053667;28;20029;-38
2022/03/27 06:16:57;;;;;;;10.40;6.45;;;;;;;20.72;23.46;100640.53;5053924;28;20025;-38
2022/03/27 06:19:23;;;;;;;10.73;6.10;;;;;;;20.99;22.84;100632.50;5053841;28;20029;-38
2022/03/27 06:21:49;;;;;;;12.48;5.93;;;;;;;21.73;21.80;100650.97;5054073;28;20021;-38
2022/03/27 06:24:14;;;;;;;10.70;5.55;;;;;;;21.19;22.41;100642.72;5053443;28;20459;-38
2022/03/27 06:26:41;;;;;;;7.43;4.80;;;;;;;21.92;22.75;100653.31;5053859;28;20033;-38
2022/03/27 06:29:09;;;;;;;10.02;5.10;;;;;;;22.64;21.27;100650.09;5053796;28;20067;-38
2022/03/27 06:31:35;;;;;;;7.38;5.00;;;;;;;22.67;21.09;100650.66;5053401;28;20044;-36
2022/03/27 06:34:01;;;;;;;11.07;5.20;;;;;;;23.19;20.90;100644.44;5053130;28;20033;-37
2022/03/27 06:36:26;;;;;;;10.85;5.93;;;;;;;23.42;20.41;100651.31;5053346;28;20051;-37
2022/03/27 06:38:52;;;;;;;9.32;4.97;;;;;;;23.08;20.59;100650.91;5053224;28;20025;-37
2022/03/27 06:41:17;;;;;;;14.55;6.70;;;;;;;23.19;20.60;100649.88;5052676;28;20566;-37
2022/03/27 06:43:43;;;;;;;10.60;6.30;;;;;;;23.02;21.02;100655.47;5052819;28;20029;-37
2022/03/27 06:46:13;;;;;;;10.00;5.03;;;;;;;23.01;21.02;100657.34;5053320;28;20036;-38
2022/03/27 06:48:38;;;;;;;13.75;5.68;;;;;;;23.05;20.56;100657.66;5053119;28;20032;-37
2022/03/27 06:51:04;;;;;;;11.65;5.35;;;;;;;22.99;21.19;100659.50;5052693;28;20025;-37
2022/03/27 06:53:29;;;;;;;13.93;5.88;;;;;;;23.80;20.51;100660.94;5053187;28;20025;-37
2022/03/27 06:55:55;;;;;;;11.57;5.65;;;;;;;23.72;20.49;100658.72;5052848;28;20020;-37
2022/03/27 06:58:20;;;;;;;13.00;6.43;;;;;;;23.40;20.76;100656.19;5053162;28;20039;-37
2022/03/27 07:03:30;;;;;;;10.35;5.95;;;;;;;22.50;21.67;100667.91;5052739;28;20043;-38
2022/03/27 07:05:56;;;;;;;10.73;5.45;;;;;;;22.59;21.42;100663.63;5052142;28;20488;-38
2022/03/27 07:08:21;;;;;;;13.07;5.90;;;;;;;22.51;21.67;100668.72;5052211;28;20044;-38
2022/03/27 07:10:48;;;;;;;13.40;5.55;;;;;;;22.02;21.90;100665.03;5051925;28;20025;-37
2022/03/27 07:13:16;;;;;;;10.13;4.90;;;;;;;21.98;22.19;100663.13;5052035;28;20492;-37
2022/03/27 07:15:43;;;;;;;11.18;5.60;;;;;;;22.32;21.70;100660.19;5052299;28;20021;-37
2022/03/27 07:18:10;;;;;;;10.00;5.18;;;;;;;23.02;20.64;100661.72;5052722;28;20086;-37
2022/03/27 07:20:40;;;;;;;11.57;5.32;;;;;;;23.47;20.33;100667.59;5052031;28;20500;-37
2022/03/27 07:23:09;;;;;;;18.92;5.43;;;;;;;23.79;20.33;100661.19;5052043;28;20024;-38
2022/03/27 07:25:36;;;;;;;9.90;5.37;;;;;;;23.68;20.19;100654.06;5052391;28;20036;-38
2022/03/27 07:28:06;;;;;;;12.38;7.03;;;;;;;24.33;19.94;100670.72;5052160;28;20024;-38
2022/03/27 07:30:33;;;;;;;11.55;5.65;;;;;;;24.18;19.75;100671.56;5051979;28;20025;-38
2022/03/27 07:32:59;;;;;;;16.20;5.47;;;;;;;23.59;20.13;100657.31;5045254;28;20029;-38
2022/03/27 07:35:26;;;;;;;11.30;6.10;;;;;;;23.07;20.45;100657.41;5051767;28;20099;-38
2022/03/27 07:37:53;;;;;;;13.45;7.82;;;;;;;23.03;20.61;100655.22;5053727;28;20048;-38
2022/03/27 07:40:20;;;;;;;12.77;5.47;;;;;;;24.11;19.77;100658.22;5058921;28;20085;-38
2022/03/27 07:42:49;;;;;;;18.40;7.13;;;;;;;24.56;19.46;100653.88;5059617;28;20032;-36
2022/03/27 07:45:15;;;;;;;12.65;5.38;;;;;;;23.89;19.13;100646.78;5065957;28;20499;-37
2022/03/27 07:47:42;;;;;;;16.98;5.63;;;;;;;23.81;19.25;100650.88;5054493;28;20124;-38
2022/03/27 07:50:08;;;;;;;13.35;5.90;;;;;;;22.20;20.40;100652.19;5066094;28;20020;-38
2022/03/27 07:52:34;;;;;;;14.65;5.50;;;;;;;23.02;19.98;100652.75;5050965;28;20040;-38
2022/03/27 07:55:00;;;;;;;14.60;5.55;;;;;;;23.02;19.92;100648.13;5063847;28;20063;-38
2022/03/27 07:57:26;;;;;;;8.55;5.40;;;;;;;23.74;19.33;100648.41;5055070;28;20071;-38
2022/03/27 07:59:52;;;;;;;10.57;5.30;;;;;;;24.19;19.32;100644.09;5054433;28;20032;-38
2022/03/27 08:02:21;;;;;;;21.00;5.53;;;;;;;24.19;19.02;100643.28;5064515;28;20074;-38
2022/03/27 08:04:47;;;;;;;12.27;5.82;;;;;;;24.24;18.60;100642.44;5061745;28;20094;-37
2022/03/27 08:07:13;;;;;;;11.02;5.50;;;;;;;23.41;19.18;100642.31;5056707;28;20634;-37
2022/03/27 08:09:39;;;;;;;12.05;5.60;;;;;;;23.90;18.88;100640.28;5053124;28;20029;-37
2022/03/27 08:12:07;;;;;;;14.32;5.47;;;;;;;24.93;18.51;100635.56;5065879;28;20024;-37
2022/03/27 08:14:34;;;;;;;14.13;5.78;;;;;;;24.74;18.18;100635.34;5051218;28;20025;-38
2022/03/27 08:16:59;;;;;;;14.50;6.20;;;;;;;24.75;17.96;100631.50;5063531;28;20036;-38
2022/03/27 08:19:25;;;;;;;11.30;5.47;;;;;;;24.07;18.36;100629.97;5054730;28;20518;-37
2022/03/27 08:21:51;;;;;;;19.55;6.20;;;;;;;23.55;18.44;100628.22;5067431;28;20032;-37
2022/03/27 08:24:17;;;;;;;17.65;6.20;;;;;;;23.48;18.70;100638.56;5057550;28;20028;-37
2022/03/27 08:26:59;;;;;;;23.85;6.43;;;;;;;23.15;18.65;100625.16;5060335;28;20167;-37
2022/03/27 08:29:27;;;;;;;20.60;6.00;;;;;;;23.65;18.62;100627.47;5050895;28;20062;-37
2022/03/27 08:31:53;;;;;;;14.07;5.82;;;;;;;24.28;17.73;100613.66;5037450;28;20455;-38
2022/03/27 08:34:20;;;;;;;12.65;5.88;;;;;;;23.84;17.76;100622.31;5063640;28;20025;-38
2022/03/27 08:36:47;;;;;;;14.65;6.47;;;;;;;23.65;18.03;100617.41;5061459;28;20021;-38
2022/03/27 08:39:12;;;;;;;13.25;6.00;;;;;;;23.93;17.98;100607.94;5056069;28;20473;-38
2022/03/27 08:41:45;;;;;;;13.02;6.30;;;;;;;23.94;17.86;100597.88;5067387;28;20051;-38
2022/03/27 08:44:13;;;;;;;12.48;6.00;;;;;;;24.49;17.41;100596.19;5056557;28;20408;-38
2022/03/27 08:46:40;;;;;;;13.43;6.15;;;;;;;24.45;17.48;100594.31;5060875;28;20021;-37
2022/03/27 08:49:18;;;;;;;12.15;6.05;;;;;;;24.02;17.79;100589.19;5050137;28;20075;-37
2022/03/27 08:51:56;;;;;;;12.70;6.07;;;;;;;24.53;17.40;100588.31;5066768;28;20432;-37
2022/03/27 08:54:29;;;;;;;13.75;6.95;;;;;;;23.87;17.76;100572.88;5057855;28;20027;-38
2022/03/27 08:57:21;;;;;;;11.68;6.30;;;;;;;23.76;17.55;100591.88;5061086;28;20033;-37
2022/03/27 08:59:49;;;;;;;16.75;6.00;;;;;;;23.10;18.22;100576.28;5052737;28;20029;-37
2022/03/27 09:02:16;;;;;;;15.03;6.80;;;;;;;22.90;18.63;100579.69;5063794;28;20051;-38
2022/03/27 09:04:41;;;;;;;14.80;5.75;;;;;;;23.57;18.12;100585.31;5059620;28;20032;-36
2022/03/27 09:07:07;;;;;;;12.02;6.22;;;;;;;24.42;17.41;100581.25;5056421;28;20431;-37
2022/03/27 09:09:34;;;;;;;14.05;6.35;;;;;;;24.26;17.64;100573.13;5066227;28;20047;-37
2022/03/27 09:12:03;;;;;;;12.48;5.70;;;;;;;25.09;17.24;100569.06;5050226;28;20024;-38
2022/03/27 09:14:31;;;;;;;12.60;6.28;;;;;;;25.08;16.71;100572.88;5058231;28;20072;-37
2022/03/27 09:17:01;;;;;;;15.13;6.38;;;;;;;24.35;16.20;100565.19;5058048;28;20032;-37
2022/03/27 09:19:33;;;;;;;11.05;6.20;;;;;;;24.85;16.02;100566.16;5066809;28;20107;-37
2022/03/27 09:21:59;;;;;;;13.07;6.60;;;;;;;24.18;16.09;100566.34;5038429;28;20456;-37
2022/03/27 09:24:35;;;;;;;15.55;6.10;;;;;;;23.69;16.39;100563.34;5061801;28;20028;-37
2022/03/27 09:27:00;;;;;;;18.00;6.22;;;;;;;24.08;16.03;100558.19;5062543;28;20109;-37
2022/03/27 09:29:26;;;;;;;11.27;6.07;;;;;;;24.25;16.18;100547.00;5053792;28;20077;-37
2022/03/27 09:31:58;;;;;;;11.88;6.03;;;;;;;24.66;15.72;100548.84;5066469;28;20032;-37
2022/03/27 09:34:23;;;;;;;13.88;6.18;;;;;;;24.52;15.89;100543.16;5059722;28;20052;-36
2022/03/27 09:36:50;;;;;;;14.55;6.35;;;;;;;24.53;15.72;100551.03;5062998;28;20110;-37
2022/03/27 09:39:17;;;;;;;9.93;5.85;;;;;;;24.34;15.69;100545.34;5054419;28;20146;-37
2022/03/27 09:41:48;;;;;;;29.52;6.78;;;;;;;24.32;15.20;100541.28;5070291;28;20017;-37
2022/03/27 09:44:29;;;;;;;14.15;6.50;;;;;;;24.31;14.81;100550.53;5058889;28;20029;-36
2022/03/27 09:46:58;;;;;;;14.80;6.05;;;;;;;24.38;14.94;100543.72;5060282;28;20528;-38
2022/03/27 09:49:44;;;;;;;;;;;;;;;24.88;14.45;100546.53;5054259;28;20031;-37
2022/03/27 09:52:11;;;;;;;16.73;6.53;;;;;;;25.18;14.51;100534.66;5059094;28;20065;-37
2022/03/27 09:55:00;;;;;;;17.17;7.95;;;;;;;24.42;14.90;100540.44;5064068;28;20037;-37
2022/03/27 09:57:28;;;;;;;10.13;6.38;;;;;;;24.27;14.61;100524.97;5052237;28;20044;-37
2022/03/27 09:59:56;;;;;;;11.93;5.70;;;;;;;24.44;14.33;100530.09;5045004;28;20047;-38
2022/03/27 10:02:31;;;;;;;13.57;6.32;;;;;;;23.83;14.78;100533.75;5057299;28;20130;-37
2022/03/27 10:05:05;;;;;;;12.95;6.32;;;;;;;24.16;15.09;100535.88;5060850;28;20660;-37
2022/03/27 10:07:52;;;;;;;9.93;5.93;;;;;;;24.33;15.10;100524.69;5069945;28;20067;-38
2022/03/27 10:10:22;;;;;;;13.02;5.53;;;;;;;24.50;14.50;100521.66;5052993;28;20103;-38
2022/03/27 10:12:56;;;;;;;14.35;6.13;;;;;;;24.14;14.98;100521.75;5052451;28;20102;-38
2022/03/27 10:15:24;;;;;;;8.88;5.57;;;;;;;24.19;15.02;100516.28;5051457;28;20401;-38
2022/03/27 10:18:08;;;;;;;10.13;6.68;;;;;;;23.96;14.96;100522.31;5052084;28;20029;-37
2022/03/27 10:20:36;;;;;;;14.57;6.57;;;;;;;24.76;14.59;100524.28;5051730;28;20044;-37
2022/03/27 10:23:03;;;;;;;22.88;6.68;;;;;;;24.50;14.66;100508.06;5051284;28;20128;-38
2022/03/27 10:25:36;;;;;;;11.48;6.20;;;;;;;24.27;14.76;100511.38;5051711;28;20552;-38
2022/03/27 10:28:04;;;;;;;14.23;6.65;;;;;;;24.63;14.71;100509.38;5051913;28;20032;-37
2022/03/27 10:30:30;;;;;;;13.40;6.47;;;;;;;24.36;14.52;100507.00;5051855;28;20025;-37
2022/03/27 10:32:57;;;;;;;10.68;6.05;;;;;;;24.29;14.49;100507.28;5052116;28;20025;-37
2022/03/27 10:35:46;;;;;;;12.80;6.35;;;;;;;24.81;14.22;100502.50;5051515;28;20036;-37
2022/03/27 10:38:32;;;;;;;11.50;6.05;;;;;;;25.26;14.04;100500.59;5050396;28;20033;-37
2022/03/27 10:41:33;;;;;;;11.05;5.90;;;;;;;25.16;14.36;100501.47;5051020;28;20017;-37
2022/03/27 10:44:25;;;;;;;10.77;6.47;;;;;;;25.32;14.15;100494.06;5051539;28;20049;-38
2022/03/27 10:47:13;;;;;;;14.60;6.60;;;;;;;25.07;13.99;100499.63;5051369;28;20044;-36
2022/03/27 10:49:41;;;;;;;12.35;6.20;;;;;;;25.55;13.77;100478.03;5052126;28;20064;-38
2022/03/27 10:52:08;;;;;;;13.85;6.25;;;;;;;25.45;14.08;100492.56;5050491;28;20029;-38
2022/03/27 10:55:00;;;;;;;14.07;7.28;;;;;;;25.57;14.15;100492.22;5050789;28;20055;-38
2022/03/27 10:57:37;;;;;;;12.68;6.88;;;;;;;25.91;12.89;100489.47;5049784;28;20032;-38
2022/03/27 11:00:08;;;;;;;11.70;6.10;;;;;;;25.47;13.53;100486.84;5049441;28;20107;-38
2022/03/27 11:02:49;;;;;;;10.23;6.63;;;;;;;25.90;13.17;100482.34;5049464;28;20017;-38
2022/03/27 11:05:35;;;;;;;11.55;6.32;;;;;;;25.67;13.34;100470.31;5049592;28;20027;-37
2022/03/27 11:08:29;;;;;;;12.95;6.47;;;;;;;26.22;13.09;100461.88;5049619;28;20443;-37
2022/03/27 11:10:59;;;;;;;15.38;7.50;;;;;;;26.44;13.07;100465.97;5042185;28;20041;-36
2022/03/27 11:13:33;;;;;;;14.45;6.53;;;;;;;25.50;13.70;100464.47;5051130;28;20028;-36
2022/03/27 11:16:09;;;;;;;15.57;6.50;;;;;;;25.46;12.99;100469.69;5052611;28;20036;-37
2022/03/27 11:18:35;;;;;;;14.07;6.32;;;;;;;25.04;13.69;100470.25;5052163;28;20090;-37
2022/03/27 11:21:01;;;;;;;15.82;6.68;;;;;;;25.14;14.06;100457.38;5052301;28;20100;-37
2022/03/27 11:23:28;;;;;;;12.15;6.32;;;;;;;25.40;13.34;100453.66;5052523;28;20043;-37
2022/03/27 11:25:54;;;;;;;10.70;6.43;;;;;;;26.06;13.10;100439.41;5052031;28;20024;-37
2022/03/27 11:28:21;;;;;;;11.18;6.20;;;;;;;26.37;12.94;100435.50;5051739;28;20060;-37